Vocklabruck, Austria
Current Conditions -  °F | °C
As of 1:20 PM on Thursday 27 Nov 2014 (Local Time) from LOWL Reporting Station
Scattered Clouds Scattered Clouds  
Wind Chill: 34°   Ceiling: Unl
Heat Index: 41°   Visibility: 6mi
Dew Point: 34°   Wind: 13mph
Humidity: 76%   Direction: 100°E
Pressure: 29.88"   Gusts: NA
Location:  48.01°N, 13.65°E
Report Text: LOWL 271120Z 10011KT 9999 FEW018 SCT150 05/01 Q1012 NOSIG
Loading
Personal Weather Stations






























Interactive Weather Map New forecast layout! Learn more

10-Day Weather Forecast

Advertisements
Track Severe Weather on mobile